This is the latest recevied weather packets stored in our database for station/object IU1OLT-7. If no packets are shown the sender has not sent any weather packets the latest 10 day(s).
| Time | Temp. | Humidity | Pressure | Rain* | Wind** | Luminosity | Snow |
|---|---|---|---|---|---|---|---|
| 1787695724 | 21.67° C | 70% | 1021.6 hPa | - | - | - | - |
| 1787694824 | 21.67° C | 69% | 1021.5 hPa | - | - | - | - |
| 1787693924 | 21.11° C | 70% | 1021.4 hPa | - | - | - | - |
| 1787693024 | 21.67° C | 65% | 1021.2 hPa | - | - | - | - |
| 1787692124 | 22.78° C | 60% | 1021.4 hPa | - | - | - | - |
| 1787691224 | 22.22° C | 55% | 1021.2 hPa | - | - | - | - |
| 1787690324 | 23.89° C | 47% | 1020.9 hPa | - | - | - | - |
| 1787689424 | 21.67° C | 58% | 1020.8 hPa | - | - | - | - |
| 1787688524 | 22.78° C | 57% | 1020.8 hPa | - | - | - | - |
| 1787687624 | 22.22° C | 63% | 1020.8 hPa | - | - | - | - |
| 1787686724 | 21.67° C | 62% | 1020.7 hPa | - | - | - | - |
| 1787685824 | 20.56° C | 73% | 1020.7 hPa | - | - | - | - |
| 1787684924 | 21.11° C | 70% | 1020.5 hPa | - | - | - | - |
| 1787684024 | 20° C | 75% | 1020.4 hPa | - | - | - | - |
| 1787683124 | 23.33° C | 59% | 1020.1 hPa | - | - | - | - |
| 1787682224 | 23.89° C | 61% | 1020.1 hPa | - | - | - | - |
| 1787681323 | 22.78° C | 67% | 1019.9 hPa | - | - | - | - |
| 1787680422 | 23.33° C | 67% | 1019.9 hPa | - | - | - | - |
| 1787679522 | 23.89° C | 65% | 1019.8 hPa | - | - | - | - |
| 1787678623 | 24.44° C | 62% | 1019.4 hPa | - | - | - | - |
| 1787677723 | 25° C | 58% | 1019.4 hPa | - | - | - | - |
| 1787676823 | 29.44° C | 45% | 1019.2 hPa | - | - | - | - |
| 1787675922 | 28.33° C | 49% | 1019.2 hPa | - | - | - | - |
| 1787675022 | 27.78° C | 51% | 1019.2 hPa | - | - | - | - |
| 1787674122 | 27.78° C | 51% | 1019.2 hPa | - | - | - | - |
* Rain since midnight (hover to see other rain measurements)
** Current wind speed in m/s (hover to see current wind gust speed)